Time;durP1;ratioP1;P1;durP2;ratioP2;P2;SDS_P1;SDS_P2;PMS_P1;PMS_P2;Temp;Humidity;BMP_temperature;BMP_pressure;BME280_temperature;BME280_humidity;BME280_pressure;Samples;Min_cycle;Max_cycle;Signal;HPM_P1;HPM_P2
2022/09/22 00:01:40;;;;;;;;;;;7.80;99.90;;;;;;4962938;28;19936;-58
2022/09/22 00:04:08;;;;;;;;;;;7.70;99.90;;;;;;4978238;28;20396;-58
2022/09/22 00:06:37;;;;;;;;;;;7.70;99.90;;;;;;4976725;28;19945;-58
2022/09/22 00:09:04;;;;;;;;;;;7.60;99.90;;;;;;5008092;28;20408;-57
2022/09/22 00:11:35;;;;;;;;;;;7.60;99.90;;;;;;4994282;28;19930;-58
2022/09/22 00:14:06;;;;;;;;;;;7.70;99.90;;;;;;5010693;28;20293;-58
2022/09/22 00:16:43;;;;;;;;;;;7.60;99.90;;;;;;4999528;28;20666;-58
2022/09/22 00:19:12;;;;;;;;;;;7.60;99.90;;;;;;4979877;28;19922;-58
2022/09/22 00:21:38;;;;;;;;;;;7.60;99.90;;;;;;4979489;28;19922;-45
2022/09/22 00:24:06;;;;;;;;;;;7.60;99.90;;;;;;4977868;28;19933;-46
2022/09/22 00:26:34;;;;;;;;;;;7.60;99.90;;;;;;4980853;28;20511;-46
2022/09/22 00:29:00;;;;;;;;;;;7.60;99.90;;;;;;4981161;28;20556;-45
2022/09/22 00:31:27;;;;;;;;;;;7.50;99.90;;;;;;4975589;28;19933;-47
2022/09/22 00:33:53;;;;;;;;;;;7.60;99.90;;;;;;4981260;28;19944;-45
2022/09/22 00:36:21;;;;;;;;;;;7.50;99.90;;;;;;4987101;28;19972;-58
2022/09/22 00:38:50;;;;;;;;;;;7.50;99.90;;;;;;4976262;28;19955;-58
2022/09/22 00:41:18;;;;;;;;;;;7.50;99.90;;;;;;4990251;28;20031;-57
2022/09/22 00:43:49;;;;;;;;;;;7.50;99.90;;;;;;4972300;28;20394;-58
2022/09/22 00:46:21;;;;;;;;;;;7.40;99.90;;;;;;4974003;28;19956;-58
2022/09/22 00:48:50;;;;;;;;;;;7.40;99.90;;;;;;4974971;28;20032;-58
2022/09/22 00:51:19;;;;;;;;;;;7.40;99.90;;;;;;4953032;28;20048;-58
2022/09/22 00:53:46;;;;;;;;;;;7.40;99.90;;;;;;5009368;28;20655;-59
2022/09/22 00:56:17;;;;;;;;;;;7.30;99.90;;;;;;4973984;28;20376;-58
2022/09/22 00:59:04;;;;;;;;;;;7.30;99.90;;;;;;4974185;28;19945;-58
2022/09/22 01:01:35;;;;;;;;;;;7.20;99.90;;;;;;4975362;28;19925;-58
2022/09/22 01:04:02;;;;;;;;;;;7.20;99.90;;;;;;4973497;28;20443;-58
2022/09/22 01:06:28;;;;;;;;;;;7.20;99.90;;;;;;4975018;28;19928;-58
2022/09/22 01:08:55;;;;;;;;;;;7.10;99.90;;;;;;4977783;28;20063;-58
2022/09/22 01:11:22;;;;;;;;;;;7.10;99.90;;;;;;4955712;28;19937;-58
2022/09/22 01:14:12;;;;;;;;;;;7.20;99.90;;;;;;5007306;28;19999;-58
2022/09/22 01:16:54;;;;;;;;;;;7.10;99.90;;;;;;4973756;28;20335;-59
2022/09/22 01:19:36;;;;;;;;;;;7.10;99.90;;;;;;4974699;28;20475;-49
2022/09/22 01:22:21;;;;;;;;;;;7.10;99.90;;;;;;4987917;28;19932;-47
2022/09/22 01:24:54;;;;;;;;;;;7.00;99.90;;;;;;4974507;28;19925;-49
2022/09/22 01:27:37;;;;;;;;;;;7.00;99.90;;;;;;4971981;28;19929;-57
2022/09/22 01:30:30;;;;;;;;;;;7.10;99.90;;;;;;4974930;28;20562;-58
2022/09/22 01:33:15;;;;;;;;;;;7.00;99.90;;;;;;4939356;28;19932;-58
2022/09/22 01:35:47;;;;;;;;;;;7.00;99.90;;;;;;4963269;28;19922;-59
2022/09/22 01:38:36;;;;;;;;;;;7.00;99.90;;;;;;4971197;28;19931;-58
2022/09/22 01:41:07;;;;;;;;;;;7.00;99.90;;;;;;5002734;28;19926;-58
2022/09/22 01:43:46;;;;;;;;;;;6.90;99.90;;;;;;4978945;28;20329;-62
2022/09/22 01:46:39;;;;;;;;;;;6.90;99.90;;;;;;4975611;28;20607;-57
2022/09/22 01:49:07;;;;;;;;;;;6.80;99.90;;;;;;4976408;28;19932;-56
2022/09/22 01:51:37;;;;;;;;;;;6.80;99.90;;;;;;4978291;28;22407;-58
2022/09/22 01:54:08;;;;;;;;;;;6.70;99.90;;;;;;4977162;28;20056;-58
2022/09/22 01:56:36;;;;;;;;;;;6.80;99.90;;;;;;4973391;28;19933;-57
2022/09/22 01:59:03;;;;;;;;;;;6.70;99.90;;;;;;4989356;28;19991;-58
2022/09/22 02:01:32;;;;;;;;;;;6.80;99.90;;;;;;4976221;28;20246;-58
2022/09/22 02:04:01;;;;;;;;;;;6.80;99.90;;;;;;5008006;28;19957;-57
2022/09/22 02:06:38;;;;;;;;;;;6.70;99.90;;;;;;4993060;28;19992;-58
2022/09/22 02:09:06;;;;;;;;;;;6.70;99.90;;;;;;4976117;28;19925;-45
2022/09/22 02:11:32;;;;;;;;;;;6.70;99.90;;;;;;5007111;28;19926;-46
2022/09/22 02:13:59;;;;;;;;;;;6.60;99.90;;;;;;4975558;28;20213;-49
2022/09/22 02:16:26;;;;;;;;;;;6.60;99.90;;;;;;4976436;28;19948;-49
2022/09/22 02:18:58;;;;;;;;;;;6.50;99.90;;;;;;5009628;28;19925;-44
2022/09/22 02:21:26;;;;;;;;;;;6.60;99.90;;;;;;4992553;28;19926;-44
2022/09/22 02:23:52;;;;;;;;;;;6.50;99.90;;;;;;4974423;28;20666;-45
2022/09/22 02:26:22;;;;;;;;;;;6.50;99.90;;;;;;4976960;28;19928;-46
2022/09/22 02:28:53;;;;;;;;;;;6.40;99.90;;;;;;4977310;28;19969;-46
2022/09/22 02:31:24;;;;;;;;;;;6.40;99.90;;;;;;4975703;28;19918;-50
2022/09/22 02:33:51;;;;;;;;;;;6.40;99.90;;;;;;4975496;28;19929;-44
2022/09/22 02:36:26;;;;;;;;;;;6.30;99.90;;;;;;5007751;28;19921;-46
2022/09/22 02:39:00;;;;;;;;;;;6.40;99.90;;;;;;4976192;28;20453;-45
2022/09/22 02:41:35;;;;;;;;;;;6.40;99.90;;;;;;4975271;28;20691;-44
2022/09/22 02:44:07;;;;;;;;;;;6.40;99.90;;;;;;4991049;28;19973;-47
2022/09/22 02:46:33;;;;;;;;;;;6.30;99.90;;;;;;4975288;28;20300;-48
2022/09/22 02:49:01;;;;;;;;;;;6.30;99.90;;;;;;5008327;28;20029;-47
2022/09/22 02:51:31;;;;;;;;;;;6.30;99.90;;;;;;4975639;28;19925;-46
2022/09/22 02:53:57;;;;;;;;;;;6.30;99.90;;;;;;5004888;28;20583;-47
2022/09/22 02:56:23;;;;;;;;;;;6.20;99.90;;;;;;4975831;28;19980;-59
2022/09/22 02:58:49;;;;;;;;;;;6.20;99.90;;;;;;4990537;28;19926;-58
2022/09/22 03:01:15;;;;;;;;;;;6.20;99.90;;;;;;4973445;28;19980;-62
2022/09/22 03:03:41;;;;;;;;;;;6.20;99.90;;;;;;4974841;28;20376;-58
2022/09/22 03:06:08;;;;;;;;;;;6.20;99.90;;;;;;4977674;28;19925;-58
2022/09/22 03:08:34;;;;;;;;;;;6.20;99.90;;;;;;4993882;28;20361;-58
2022/09/22 03:11:00;;;;;;;;;;;6.20;99.90;;;;;;4977601;28;20000;-57
2022/09/22 03:13:26;;;;;;;;;;;6.20;99.90;;;;;;4974262;28;19928;-58
2022/09/22 03:15:52;;;;;;;;;;;6.10;99.90;;;;;;4957687;28;19924;-58
2022/09/22 03:18:18;;;;;;;;;;;6.10;99.90;;;;;;4977144;28;19996;-58
2022/09/22 03:20:45;;;;;;;;;;;6.10;99.90;;;;;;4980303;28;19928;-58
2022/09/22 03:23:11;;;;;;;;;;;6.10;99.90;;;;;;5013256;28;19925;-58
2022/09/22 03:25:37;;;;;;;;;;;6.00;99.90;;;;;;5011135;28;19922;-58
2022/09/22 03:28:03;;;;;;;;;;;6.00;99.90;;;;;;4994803;28;20346;-58
2022/09/22 03:30:29;;;;;;;;;;;6.00;99.90;;;;;;4995751;28;19928;-58
2022/09/22 03:32:56;;;;;;;;;;;6.00;99.90;;;;;;4981588;28;20359;-58
2022/09/22 03:35:22;;;;;;;;;;;6.00;99.90;;;;;;4977926;28;20032;-60
2022/09/22 03:37:48;;;;;;;;;;;6.00;99.90;;;;;;4980393;28;19932;-58
2022/09/22 03:40:14;;;;;;;;;;;6.00;99.90;;;;;;4977356;28;20760;-63
2022/09/22 03:42:41;;;;;;;;;;;5.90;99.90;;;;;;5013135;28;19925;-58
2022/09/22 03:45:08;;;;;;;;;;;5.90;99.90;;;;;;5010855;28;20590;-58
2022/09/22 03:47:34;;;;;;;;;;;6.00;99.90;;;;;;4980994;28;20001;-58
2022/09/22 03:50:00;;;;;;;;;;;5.90;99.90;;;;;;4980697;28;20348;-58
2022/09/22 03:52:27;;;;;;;;;;;6.00;99.90;;;;;;4980088;28;19926;-58
2022/09/22 03:54:53;;;;;;;;;;;6.00;99.90;;;;;;5012194;28;19921;-58
2022/09/22 03:57:19;;;;;;;;;;;5.90;99.90;;;;;;4995922;28;20579;-57
2022/09/22 03:59:45;;;;;;;;;;;5.90;99.90;;;;;;4961824;28;19921;-47
2022/09/22 04:02:11;;;;;;;;;;;5.90;99.90;;;;;;4980135;28;19933;-45
2022/09/22 04:04:37;;;;;;;;;;;5.90;99.90;;;;;;4993689;28;20461;-49
2022/09/22 04:07:04;;;;;;;;;;;5.90;99.90;;;;;;4978799;28;20746;-49
2022/09/22 04:09:30;;;;;;;;;;;5.80;99.90;;;;;;4981844;28;19974;-47
2022/09/22 04:11:56;;;;;;;;;;;5.90;99.90;;;;;;4994711;28;19926;-46
2022/09/22 04:14:22;;;;;;;;;;;5.80;99.90;;;;;;4980753;28;20635;-46
2022/09/22 04:16:48;;;;;;;;;;;5.80;99.90;;;;;;4992556;28;19921;-43
2022/09/22 04:19:18;;;;;;;;;;;5.80;99.90;;;;;;4978777;28;20643;-49
2022/09/22 04:21:44;;;;;;;;;;;5.80;99.90;;;;;;4977203;28;20028;-48
2022/09/22 04:24:11;;;;;;;;;;;5.80;99.90;;;;;;4997324;28;20398;-48
2022/09/22 04:26:38;;;;;;;;;;;5.80;99.90;;;;;;4979033;28;19948;-45
2022/09/22 04:29:04;;;;;;;;;;;5.70;99.90;;;;;;4979961;28;19921;-47
2022/09/22 04:31:30;;;;;;;;;;;5.70;99.90;;;;;;4979350;28;19949;-48
2022/09/22 04:33:56;;;;;;;;;;;5.70;99.90;;;;;;4979401;28;19930;-46
2022/09/22 04:36:22;;;;;;;;;;;5.70;99.90;;;;;;4978038;28;19980;-45
2022/09/22 04:38:49;;;;;;;;;;;5.70;99.90;;;;;;4991510;28;19921;-45
2022/09/22 04:41:15;;;;;;;;;;;5.70;99.90;;;;;;4972642;28;20627;-44
2022/09/22 04:43:41;;;;;;;;;;;5.70;99.90;;;;;;4980067;28;20726;-45
2022/09/22 04:46:07;;;;;;;;;;;5.60;99.90;;;;;;4977718;28;20060;-46
2022/09/22 04:48:34;;;;;;;;;;;5.60;99.90;;;;;;4977060;28;19972;-48
2022/09/22 04:51:00;;;;;;;;;;;5.70;99.90;;;;;;4976843;28;19925;-45
2022/09/22 04:53:26;;;;;;;;;;;5.60;99.90;;;;;;4979470;28;19968;-51
2022/09/22 04:55:53;;;;;;;;;;;5.60;99.90;;;;;;4979079;28;19922;-49
2022/09/22 04:58:19;;;;;;;;;;;5.60;99.90;;;;;;4995147;28;19988;-48
2022/09/22 05:00:45;;;;;;;;;;;5.60;99.90;;;;;;4979984;28;19967;-46
2022/09/22 05:03:11;;;;;;;;;;;5.60;99.90;;;;;;4978534;28;20055;-48
2022/09/22 05:05:38;;;;;;;;;;;5.60;99.90;;;;;;4989624;28;19925;-48
2022/09/22 05:08:04;;;;;;;;;;;5.60;99.90;;;;;;4976132;28;19929;-48
2022/09/22 05:10:34;;;;;;;;;;;5.60;99.90;;;;;;5006934;28;19937;-46
2022/09/22 05:13:00;;;;;;;;;;;5.60;99.90;;;;;;4981119;28;20007;-49
2022/09/22 05:15:26;;;;;;;;;;;5.60;99.90;;;;;;4979993;28;19972;-46
2022/09/22 05:17:53;;;;;;;;;;;5.60;99.90;;;;;;4981586;28;20526;-47
2022/09/22 05:20:20;;;;;;;;;;;5.60;99.90;;;;;;5011245;28;19965;-48
2022/09/22 05:22:46;;;;;;;;;;;5.60;99.90;;;;;;4979167;28;19925;-48
2022/09/22 05:25:13;;;;;;;;;;;5.60;99.90;;;;;;4980036;28;20039;-47
2022/09/22 05:27:44;;;;;;;;;;;5.60;99.90;;;;;;4998156;28;19948;-46
2022/09/22 05:30:13;;;;;;;;;;;5.60;99.90;;;;;;4972752;28;19933;-46
2022/09/22 05:32:44;;;;;;;;;;;5.60;99.90;;;;;;4978651;28;19925;-46
2022/09/22 05:35:11;;;;;;;;;;;5.60;99.90;;;;;;4974006;28;20359;-46
2022/09/22 05:37:43;;;;;;;;;;;5.60;99.90;;;;;;4995957;28;19922;-55
2022/09/22 05:40:10;;;;;;;;;;;5.60;99.90;;;;;;4980568;28;19937;-55
2022/09/22 05:42:44;;;;;;;;;;;5.60;99.90;;;;;;4980316;28;19925;-56
2022/09/22 05:45:10;;;;;;;;;;;5.60;99.90;;;;;;4946771;28;19980;-56
2022/09/22 05:47:37;;;;;;;;;;;5.60;99.90;;;;;;5013448;28;19926;-53
2022/09/22 05:50:04;;;;;;;;;;;5.60;99.90;;;;;;5009333;28;20649;-58
2022/09/22 05:52:30;;;;;;;;;;;5.70;99.90;;;;;;4978975;28;20392;-56
2022/09/22 05:54:56;;;;;;;;;;;5.70;99.90;;;;;;4979338;28;19932;-56
2022/09/22 05:57:26;;;;;;;;;;;5.70;99.90;;;;;;4962790;28;19965;-56
2022/09/22 05:59:53;;;;;;;;;;;5.80;99.90;;;;;;4997205;28;19976;-48
2022/09/22 06:02:19;;;;;;;;;;;5.80;99.90;;;;;;4977277;28;19922;-51
2022/09/22 06:04:46;;;;;;;;;;;5.80;99.90;;;;;;4977250;28;20024;-48
2022/09/22 06:07:12;;;;;;;;;;;5.90;99.90;;;;;;5010113;28;20382;-48
2022/09/22 06:09:38;;;;;;;;;;;6.00;99.90;;;;;;4992847;28;19964;-48
2022/09/22 06:12:07;;;;;;;;;;;6.00;99.90;;;;;;4995882;28;19926;-47
2022/09/22 06:14:33;;;;;;;;;;;6.10;99.90;;;;;;5009612;28;19971;-46
2022/09/22 06:17:00;;;;;;;;;;;6.10;99.90;;;;;;4981348;28;20244;-51
2022/09/22 06:19:28;;;;;;;;;;;6.20;99.90;;;;;;4983428;28;20029;-51
2022/09/22 06:21:54;;;;;;;;;;;6.30;99.90;;;;;;4997126;28;19932;-46
2022/09/22 06:24:22;;;;;;;;;;;6.40;99.90;;;;;;4982522;28;19984;-47
2022/09/22 06:26:49;;;;;;;;;;;6.50;99.90;;;;;;4994972;28;19965;-51
2022/09/22 06:29:16;;;;;;;;;;;6.50;99.90;;;;;;4998178;28;19922;-49
2022/09/22 06:31:42;;;;;;;;;;;6.60;99.90;;;;;;4982465;28;19973;-47
2022/09/22 06:34:10;;;;;;;;;;;6.70;99.90;;;;;;4984759;28;20057;-51
2022/09/22 06:36:36;;;;;;;;;;;6.80;99.90;;;;;;4983143;28;19921;-48
2022/09/22 06:39:03;;;;;;;;;;;6.90;99.90;;;;;;5016367;28;20347;-50
2022/09/22 06:41:31;;;;;;;;;;;7.00;99.90;;;;;;4977915;28;19921;-47
2022/09/22 06:44:01;;;;;;;;;;;7.10;99.90;;;;;;4995549;28;19941;-50
2022/09/22 06:46:29;;;;;;;;;;;7.30;99.90;;;;;;4982255;28;20914;-50
2022/09/22 06:48:56;;;;;;;;;;;7.50;99.90;;;;;;4981380;28;19921;-49
2022/09/22 06:51:26;;;;;;;;;;;7.80;99.90;;;;;;4986196;28;19960;-50
2022/09/22 06:53:53;;;;;;;;;;;8.10;99.90;;;;;;4998149;28;19933;-48
2022/09/22 06:56:20;;;;;;;;;;;8.50;99.90;;;;;;5016445;28;20678;-49
2022/09/22 06:58:48;;;;;;;;;;;8.70;99.90;;;;;;5009187;28;20225;-45
2022/09/22 07:01:18;;;;;;;;;;;9.10;99.90;;;;;;4979595;28;19932;-46
2022/09/22 07:03:45;;;;;;;;;;;9.40;99.90;;;;;;4985577;28;20024;-47
2022/09/22 07:06:15;;;;;;;;;;;9.70;99.90;;;;;;5001148;28;19921;-48
2022/09/22 07:08:42;;;;;;;;;;;9.80;99.90;;;;;;4984820;28;19925;-49
2022/09/22 07:11:09;;;;;;;;;;;10.10;99.90;;;;;;4952225;28;20718;-48
2022/09/22 07:13:39;;;;;;;;;;;10.30;99.90;;;;;;4949976;28;19921;-58
2022/09/22 07:16:16;;;;;;;;;;;10.60;99.90;;;;;;4946920;28;19926;-58
2022/09/22 07:18:46;;;;;;;;;;;10.90;99.90;;;;;;4982718;28;20440;-59
2022/09/22 07:21:20;;;;;;;;;;;11.20;99.90;;;;;;4982655;28;20007;-48
2022/09/22 07:23:48;;;;;;;;;;;11.60;99.90;;;;;;4984147;28;20253;-53
2022/09/22 07:26:16;;;;;;;;;;;12.10;99.90;;;;;;4986644;28;20320;-50
2022/09/22 07:28:44;;;;;;;;;;;12.50;99.90;;;;;;4983759;28;19948;-50
2022/09/22 07:31:12;;;;;;;;;;;12.80;99.90;;;;;;4984235;28;19925;-51
2022/09/22 07:33:39;;;;;;;;;;;13.00;99.90;;;;;;4979935;28;19932;-58
2022/09/22 07:36:09;;;;;;;;;;;13.10;99.90;;;;;;4998407;28;20386;-58
2022/09/22 07:38:39;;;;;;;;;;;13.40;99.90;;;;;;4982474;28;19921;-58
2022/09/22 07:41:07;;;;;;;;;;;13.70;99.90;;;;;;5014365;28;19968;-51
2022/09/22 07:43:33;;;;;;;;;;;14.10;99.90;;;;;;4982992;28;20021;-51
2022/09/22 07:46:00;;;;;;;;;;;14.40;99.90;;;;;;4979027;28;19921;-51
2022/09/22 07:48:41;;;;;;;;;;;14.90;99.90;;;;;;4981386;28;19932;-51
2022/09/22 07:51:09;;;;;;;;;;;15.30;99.90;;;;;;4982747;28;20419;-46
2022/09/22 07:53:38;;;;;;;;;;;15.70;99.90;;;;;;4981958;28;20052;-51
2022/09/22 07:56:05;;;;;;;;;;;15.90;99.90;;;;;;4979971;28;19922;-48
2022/09/22 07:58:32;;;;;;;;;;;16.20;99.90;;;;;;4981378;28;19969;-52
2022/09/22 08:01:03;;;;;;;;;;;16.20;99.90;;;;;;5011759;28;19976;-52
2022/09/22 08:03:29;;;;;;;;;;;16.70;99.90;;;;;;4980561;28;19987;-48
2022/09/22 08:06:09;;;;;;;;;;;17.00;99.90;;;;;;4992271;28;20012;-49
2022/09/22 08:08:36;;;;;;;;;;;17.30;99.90;;;;;;4975293;28;20070;-50
2022/09/22 08:11:06;;;;;;;;;;;17.50;99.90;;;;;;5006457;28;20040;-49
2022/09/22 08:13:33;;;;;;;;;;;17.80;99.90;;;;;;4978486;28;20020;-51
2022/09/22 08:16:02;;;;;;;;;;;17.90;99.90;;;;;;4980657;28;19966;-50
2022/09/22 08:18:28;;;;;;;;;;;18.00;99.90;;;;;;5012657;28;19968;-50
2022/09/22 08:20:55;;;;;;;;;;;18.30;99.90;;;;;;4980173;28;19921;-47
2022/09/22 08:23:22;;;;;;;;;;;18.60;99.90;;;;;;4981780;28;20023;-47
2022/09/22 08:25:49;;;;;;;;;;;18.90;99.90;;;;;;4980515;28;19922;-51
2022/09/22 08:28:15;;;;;;;;;;;19.10;99.90;;;;;;4979691;28;20463;-47
2022/09/22 08:30:47;;;;;;;;;;;19.50;99.90;;;;;;4995559;28;20190;-52
2022/09/22 08:33:13;;;;;;;;;;;19.90;98.80;;;;;;4980626;28;20389;-58
2022/09/22 08:35:49;;;;;;;;;;;20.10;97.70;;;;;;4992680;28;19962;-58
2022/09/22 08:38:16;;;;;;;;;;;20.10;98.30;;;;;;4980041;28;20704;-58
2022/09/22 08:40:45;;;;;;;;;;;20.60;95.60;;;;;;4998134;28;19925;-58
2022/09/22 08:43:11;;;;;;;;;;;20.50;94.90;;;;;;4983636;28;19929;-58
2022/09/22 08:45:39;;;;;;;;;;;20.80;96.00;;;;;;4981336;28;20312;-58
2022/09/22 08:53:48;;;;;;;;;;;20.80;92.90;;;;;;4981194;28;19961;-58
2022/09/22 08:56:29;;;;;;;;;;;21.20;93.40;;;;;;4963342;28;19932;-58
2022/09/22 08:59:14;;;;;;;;;;;21.30;88.30;;;;;;4977409;28;19929;-58
2022/09/22 09:01:55;;;;;;;;;;;20.80;83.50;;;;;;4972524;28;20371;-58
2022/09/22 09:04:43;;;;;;;;;;;21.30;86.50;;;;;;4981295;28;20023;-58
2022/09/22 09:07:31;;;;;;;;;;;21.40;79.90;;;;;;4982929;28;20033;-58
2022/09/22 09:09:57;;;;;;;;;;;21.80;81.90;;;;;;4978938;28;19956;-58
2022/09/22 09:12:42;;;;;;;;;;;22.00;87.10;;;;;;4981220;28;19980;-58
2022/09/22 09:15:23;;;;;;;;;;;22.20;80.50;;;;;;4978984;28;19932;-59
2022/09/22 09:17:50;;;;;;;;;;;22.50;74.70;;;;;;4979404;28;19918;-58
2022/09/22 09:20:16;;;;;;;;;;;22.80;73.70;;;;;;4976865;28;19917;-58
2022/09/22 09:22:45;;;;;;;;;;;23.00;69.40;;;;;;4994898;28;19930;-57
2022/09/22 09:25:21;;;;;;;;;;;23.00;68.50;;;;;;4966714;28;20013;-56
2022/09/22 09:27:53;;;;;;;;;;;23.40;71.00;;;;;;4906145;28;20024;-50
2022/09/22 09:30:20;;;;;;;;;;;23.90;67.20;;;;;;4986347;28;19921;-56
2022/09/22 09:32:49;;;;;;;;;;;24.30;63.70;;;;;;5009951;28;19961;-56
2022/09/22 09:35:25;;;;;;;;;;;24.20;61.40;;;;;;4960003;28;19921;-58
2022/09/22 09:37:57;;;;;;;;;;;23.90;62.90;;;;;;4904143;28;20227;-57
2022/09/22 09:40:24;;;;;;;;;;;23.60;61.60;;;;;;4911476;28;20174;-57
2022/09/22 09:43:02;;;;;;;;;;;24.40;63.10;;;;;;4958032;28;20003;-56
2022/09/22 09:45:50;;;;;;;;;;;24.70;59.20;;;;;;4991997;28;20053;-57
2022/09/22 09:48:16;;;;;;;;;;;24.80;59.70;;;;;;4973534;28;19929;-57
2022/09/22 09:50:42;;;;;;;;;;;24.80;60.30;;;;;;4995590;28;19928;-57
2022/09/22 09:53:16;;;;;;;;;;;24.60;55.00;;;;;;4960668;28;19948;-57
2022/09/22 09:55:43;;;;;;;;;;;24.70;56.30;;;;;;4929204;28;20238;-49
2022/09/22 09:58:11;;;;;;;;;;;24.80;58.90;;;;;;4963691;28;19932;-48
2022/09/22 10:00:55;;;;;;;;;;;25.10;55.10;;;;;;4979882;28;19929;-49
2022/09/22 10:03:23;;;;;;;;;;;25.20;54.70;;;;;;4986330;28;20276;-46
2022/09/22 10:06:00;;;;;;;;;;;25.60;53.80;;;;;;4996726;28;19930;-46
2022/09/22 10:08:27;;;;;;;;;;;25.90;53.50;;;;;;4979378;28;20253;-47
2022/09/22 10:10:57;;;;;;;;;;;26.20;54.50;;;;;;5016951;28;19925;-49
2022/09/22 10:13:28;;;;;;;;;;;26.50;51.90;;;;;;5008816;28;19922;-49
2022/09/22 10:16:09;;;;;;;;;;;26.20;51.00;;;;;;4975212;28;19921;-50
2022/09/22 10:18:39;;;;;;;;;;;26.40;53.20;;;;;;4980743;28;19929;-50
2022/09/22 10:21:13;;;;;;;;;;;26.70;50.00;;;;;;4998132;28;19921;-50
2022/09/22 10:23:39;;;;;;;;;;;26.70;49.60;;;;;;4979391;28;20004;-50
2022/09/22 10:26:19;;;;;;;;;;;27.20;50.50;;;;;;4990407;28;19937;-51
2022/09/22 10:29:04;;;;;;;;;;;27.00;50.00;;;;;;4975790;28;19960;-57
2022/09/22 10:31:31;;;;;;;;;;;26.60;50.00;;;;;;4976974;28;19929;-58
2022/09/22 10:33:58;;;;;;;;;;;27.00;52.60;;;;;;5009496;28;19960;-57
2022/09/22 10:36:25;;;;;;;;;;;26.00;48.10;;;;;;5012347;28;19921;-57
2022/09/22 10:38:53;;;;;;;;;;;26.40;50.40;;;;;;4977899;28;19925;-57
2022/09/22 10:41:26;;;;;;;;;;;26.60;49.80;;;;;;4974534;28;19926;-58
2022/09/22 10:44:13;;;;;;;;;;;26.90;48.40;;;;;;5008968;28;19929;-58
2022/09/22 10:46:54;;;;;;;;;;;26.30;51.10;;;;;;5009821;28;19991;-57
2022/09/22 10:49:20;;;;;;;;;;;26.60;48.70;;;;;;4983698;28;19944;-57
2022/09/22 10:51:57;;;;;;;;;;;27.00;47.90;;;;;;4934584;28;20289;-57
2022/09/22 10:54:38;;;;;;;;;;;26.70;47.00;;;;;;4955705;28;19928;-57
2022/09/22 10:57:09;;;;;;;;;;;27.00;48.90;;;;;;4965110;28;20289;-57
2022/09/22 10:59:43;;;;;;;;;;;27.70;47.70;;;;;;5011481;28;20552;-51
2022/09/22 11:02:17;;;;;;;;;;;27.30;47.30;;;;;;5002016;28;19925;-51
2022/09/22 11:05:01;;;;;;;;;;;27.60;45.10;;;;;;5010087;28;19925;-51
2022/09/22 11:13:40;;;;;;;;;;;27.80;45.10;;;;;;4977167;28;19972;-48
2022/09/22 11:16:28;;;;;;;;;;;28.50;45.50;;;;;;4982216;28;20360;-47
2022/09/22 11:19:04;;;;;;;;;;;28.40;43.70;;;;;;5012665;28;19948;-56
2022/09/22 11:21:34;;;;;;;;;;;28.00;44.60;;;;;;4991913;28;19929;-57
2022/09/22 11:24:13;;;;;;;;;;;27.90;43.60;;;;;;4980093;28;19948;-57
2022/09/22 11:26:55;;;;;;;;;;;27.20;45.10;;;;;;4981386;28;20702;-48
2022/09/22 11:29:40;;;;;;;;;;;27.50;43.30;;;;;;4984185;28;20404;-46
2022/09/22 11:32:22;;;;;;;;;;;27.60;43.50;;;;;;4996507;28;19926;-57
2022/09/22 11:34:54;;;;;;;;;;;28.00;43.60;;;;;;5014331;28;20012;-57
2022/09/22 11:37:49;;;;;;;;;;;26.90;44.00;;;;;;5014688;28;19922;-49
2022/09/22 11:40:35;;;;;;;;;;;25.60;46.30;;;;;;4995311;28;19922;-57
2022/09/22 11:43:16;;;;;;;;;;;24.60;46.40;;;;;;4997040;28;19922;-50
2022/09/22 11:45:52;;;;;;;;;;;23.80;49.00;;;;;;5006453;28;19925;-56
2022/09/22 11:48:21;;;;;;;;;;;24.90;49.60;;;;;;4979663;28;19957;-58
2022/09/22 11:51:23;;;;;;;;;;;25.50;47.70;;;;;;5006682;28;19922;-57
2022/09/22 11:53:49;;;;;;;;;;;26.00;46.60;;;;;;4945459;28;20214;-56
2022/09/22 11:56:33;;;;;;;;;;;26.10;44.50;;;;;;4971123;28;19921;-58
2022/09/22 11:59:09;;;;;;;;;;;26.60;43.40;;;;;;5005568;28;20297;-57
2022/09/22 12:01:37;;;;;;;;;;;27.10;44.50;;;;;;4992056;28;20000;-56
2022/09/22 12:04:15;;;;;;;;;;;25.90;46.60;;;;;;5011479;28;19975;-56
2022/09/22 12:06:43;;;;;;;;;;;25.00;46.60;;;;;;4977739;28;20309;-55
2022/09/22 12:09:11;;;;;;;;;;;25.40;51.20;;;;;;4977471;28;20444;-56
2022/09/22 12:11:38;;;;;;;;;;;25.90;48.20;;;;;;4975434;28;19983;-56
2022/09/22 12:14:05;;;;;;;;;;;26.10;45.00;;;;;;4976396;28;19960;-57
2022/09/22 12:16:40;;;;;;;;;;;25.90;45.00;;;;;;5007398;28;20031;-56
2022/09/22 12:19:09;;;;;;;;;;;25.20;46.50;;;;;;5006596;28;19932;-56
2022/09/22 12:21:38;;;;;;;;;;;24.30;47.50;;;;;;4974761;28;19933;-56
2022/09/22 12:24:10;;;;;;;;;;;24.80;48.40;;;;;;5007887;28;20353;-58
2022/09/22 12:26:37;;;;;;;;;;;25.90;49.00;;;;;;5009748;28;19925;-57
2022/09/22 12:29:09;;;;;;;;;;;25.90;45.00;;;;;;5000153;28;19917;-57
2022/09/22 12:31:38;;;;;;;;;;;26.00;46.10;;;;;;4980201;28;19921;-57
2022/09/22 12:34:13;;;;;;;;;;;26.60;46.10;;;;;;4961566;28;19922;-57
2022/09/22 12:36:40;;;;;;;;;;;26.90;45.10;;;;;;4978512;28;19929;-57
2022/09/22 12:39:07;;;;;;;;;;;26.50;44.00;;;;;;4967433;28;19925;-61
2022/09/22 12:41:41;;;;;;;;;;;25.90;45.20;;;;;;4980787;28;20016;-56
2022/09/22 12:44:11;;;;;;;;;;;25.70;45.80;;;;;;4975932;28;19926;-57
2022/09/22 12:46:40;;;;;;;;;;;25.40;44.90;;;;;;4979932;28;19952;-57
2022/09/22 12:49:08;;;;;;;;;;;24.90;45.50;;;;;;4977423;28;19952;-56
2022/09/22 12:51:34;;;;;;;;;;;24.90;48.30;;;;;;4994876;28;19978;-57
2022/09/22 12:54:19;;;;;;;;;;;24.30;47.50;;;;;;4979243;28;19922;-57
2022/09/22 12:56:51;;;;;;;;;;;23.50;49.60;;;;;;5011046;28;19932;-56
2022/09/22 12:59:35;;;;;;;;;;;22.80;49.60;;;;;;4979164;28;19953;-57
2022/09/22 13:02:22;;;;;;;;;;;22.40;49.20;;;;;;5012994;28;20800;-57
2022/09/22 13:04:48;;;;;;;;;;;22.90;51.60;;;;;;4969017;28;21429;-57
2022/09/22 13:07:33;;;;;;;;;;;24.50;49.80;;;;;;5008556;28;19922;-58
2022/09/22 13:10:17;;;;;;;;;;;24.90;47.70;;;;;;4977286;28;19961;-59
2022/09/22 13:13:04;;;;;;;;;;;25.30;46.40;;;;;;4985489;28;19929;-56
2022/09/22 13:15:34;;;;;;;;;;;26.40;46.00;;;;;;4994327;28;19980;-55
2022/09/22 13:18:00;;;;;;;;;;;27.20;46.30;;;;;;4990482;28;20280;-55
2022/09/22 13:20:33;;;;;;;;;;;27.00;42.60;;;;;;4997449;28;19922;-56
2022/09/22 13:23:10;;;;;;;;;;;26.70;44.10;;;;;;4996934;28;19976;-56
2022/09/22 13:25:37;;;;;;;;;;;25.60;44.70;;;;;;4982647;28;19932;-56
2022/09/22 13:28:12;;;;;;;;;;;24.50;46.50;;;;;;4979172;28;19921;-55
2022/09/22 13:30:39;;;;;;;;;;;24.30;50.80;;;;;;4978360;28;20376;-57
2022/09/22 13:33:15;;;;;;;;;;;24.70;49.50;;;;;;4978893;28;19932;-57
2022/09/22 13:35:43;;;;;;;;;;;25.60;47.60;;;;;;4981076;28;20365;-57
2022/09/22 13:38:11;;;;;;;;;;;25.80;45.30;;;;;;4985175;28;19917;-57
2022/09/22 13:40:37;;;;;;;;;;;25.70;44.80;;;;;;5014973;28;20396;-49
2022/09/22 13:43:06;;;;;;;;;;;26.30;46.70;;;;;;4972899;28;19925;-49
2022/09/22 13:45:32;;;;;;;;;;;25.70;46.10;;;;;;4980256;28;19929;-47
2022/09/22 13:48:05;;;;;;;;;;;26.00;46.20;;;;;;4986884;28;19932;-58
2022/09/22 13:50:37;;;;;;;;;;;25.20;46.90;;;;;;4988502;28;19926;-50
2022/09/22 13:53:05;;;;;;;;;;;24.70;48.60;;;;;;4977729;28;19925;-48
2022/09/22 13:55:36;;;;;;;;;;;23.90;49.30;;;;;;5009641;28;19948;-49
2022/09/22 13:58:03;;;;;;;;;;;23.20;50.40;;;;;;4978557;28;19937;-51
2022/09/22 14:00:39;;;;;;;;;;;22.80;50.90;;;;;;4961653;28;19928;-48
2022/09/22 14:03:05;;;;;;;;;;;23.00;52.80;;;;;;4981872;28;20400;-50
2022/09/22 14:05:33;;;;;;;;;;;23.20;50.20;;;;;;4994081;28;19937;-52
2022/09/22 14:08:01;;;;;;;;;;;24.20;49.80;;;;;;5012077;28;20305;-49
2022/09/22 14:10:28;;;;;;;;;;;24.80;50.40;;;;;;4979919;28;19944;-57
2022/09/22 14:12:54;;;;;;;;;;;25.10;47.20;;;;;;4968045;28;19922;-58
2022/09/22 14:15:42;;;;;;;;;;;25.70;46.20;;;;;;4980541;28;19925;-57
2022/09/22 14:18:12;;;;;;;;;;;25.60;45.30;;;;;;4997624;28;20024;-58
2022/09/22 14:20:39;;;;;;;;;;;26.40;45.40;;;;;;5000313;28;19922;-57
2022/09/22 14:23:10;;;;;;;;;;;26.10;44.80;;;;;;4993147;28;19977;-57
2022/09/22 14:25:36;;;;;;;;;;;25.70;46.10;;;;;;4983183;28;19929;-57
2022/09/22 14:28:03;;;;;;;;;;;25.90;47.30;;;;;;4967250;28;19944;-57
2022/09/22 14:30:30;;;;;;;;;;;26.50;46.60;;;;;;4982808;28;19928;-57
2022/09/22 14:32:58;;;;;;;;;;;26.40;46.80;;;;;;4983730;28;19922;-58
2022/09/22 14:35:29;;;;;;;;;;;25.60;45.20;;;;;;4983310;28;19933;-58
2022/09/22 14:37:56;;;;;;;;;;;24.90;46.80;;;;;;4963448;28;19922;-46
2022/09/22 14:40:23;;;;;;;;;;;24.00;49.40;;;;;;4980189;28;20423;-50
2022/09/22 14:42:56;;;;;;;;;;;23.70;48.40;;;;;;4982788;28;19929;-52
2022/09/22 14:45:23;;;;;;;;;;;23.00;49.60;;;;;;4983146;28;19933;-50
2022/09/22 14:48:08;;;;;;;;;;;22.90;51.20;;;;;;4980180;28;19921;-57
2022/09/22 14:50:37;;;;;;;;;;;23.00;52.50;;;;;;4979022;28;19929;-57
2022/09/22 14:53:08;;;;;;;;;;;23.60;50.70;;;;;;4981905;28;19956;-57
2022/09/22 14:55:40;;;;;;;;;;;24.20;50.10;;;;;;4997059;28;20170;-57